This is the latest recevied weather packets stored in our database for station/object N1HQ. If no packets are shown the sender has not sent any weather packets the latest 10 day(s).
| Time | Temp. | Humidity | Pressure | Rain* | Wind** | Luminosity | Snow |
|---|---|---|---|---|---|---|---|
| 1777389128 | 25° C | 87% | 1018.8 hPa | 0 mm | - | - | - |
| 1777388833 | 25° C | 87% | 1018.7 hPa | 0 mm | - | - | - |
| 1777388535 | 24.44° C | 88% | 1018.7 hPa | 0 mm | - | - | - |
| 1777387736 | 23.89° C | 89% | 1018.8 hPa | 0 mm | - | - | - |
| 1777387468 | 23.89° C | 90% | 1018.7 hPa | 0 mm | - | - | - |
| 1777387193 | 23.33° C | 90% | 1018.6 hPa | 0 mm | - | - | - |
| 1777386903 | 23.33° C | 91% | 1018.6 hPa | 0 mm | - | - | - |
| 1777386185 | 22.78° C | 92% | 1018.6 hPa | 0 mm | - | - | - |
| 1777386185 | 22.78° C | 93% | 1018.7 hPa | 0 mm | - | - | - |
| 1777385052 | 22.22° C | 93% | 1018.7 hPa | 0 mm | - | - | - |
| 1777384756 | 21.67° C | 93% | 1018.7 hPa | 0 mm | - | - | - |
| 1777384222 | 21.67° C | 94% | 1018.7 hPa | 0 mm | - | - | - |
| 1777383648 | 21.11° C | 94% | 1018.6 hPa | 0 mm | - | - | - |
| 1777383405 | 21.11° C | 94% | 1018.6 hPa | 0 mm | - | - | - |
| 1777383136 | 21.11° C | 95% | 1018.6 hPa | 0 mm | - | - | - |
| 1777382843 | 20.56° C | 95% | 1018.5 hPa | 0 mm | - | - | - |
| 1777382581 | 20.56° C | 95% | 1018.4 hPa | 0 mm | - | - | - |
| 1777382278 | 20.56° C | 96% | 1018.3 hPa | 0 mm | - | - | - |
| 1777381962 | 20.56° C | 96% | 1018.3 hPa | 0 mm | - | - | - |
| 1777376233 | 18.33° C | 99% | 1017.1 hPa | 0 mm | - | - | - |
| 1777375981 | 18.33° C | 99% | 1017.2 hPa | 0 mm | - | - | - |
| 1777375688 | 18.33° C | 99% | 1017.1 hPa | 0 mm | - | - | - |
| 1777375418 | 18.33° C | 99% | 1017.1 hPa | 0 mm | - | - | - |
| 1777375123 | 18.33° C | 99% | 1016.9 hPa | 0 mm | - | - | - |
| 1777374873 | 18.33° C | 99% | 1016.8 hPa | 0 mm | - | - | - |
* Rain latest hour (hover to see other rain measurements)
** Current wind speed in m/s (hover to see current wind gust speed)